createdAt,value
2023-11-01T00:03:01.071Z,52191.72
2023-11-01T00:08:05.709Z,52239.72
2023-11-01T00:13:09.954Z,52219.72
2023-11-01T00:18:15.713Z,52263.72
2023-11-01T00:23:20.085Z,52241.72
2023-11-01T00:28:24.328Z,52241.72
2023-11-01T00:33:29.955Z,52235.72
2023-11-01T00:38:37.091Z,52203.69
2023-11-01T00:43:41.392Z,52219.72
2023-11-01T00:48:47.153Z,52225.72
2023-11-01T00:53:51.311Z,52233.72
2023-11-01T00:58:55.595Z,52205.69
2023-11-01T01:04:01.330Z,52205.69
2023-11-01T01:09:05.755Z,52207.72
2023-11-01T01:14:10.156Z,52231.72
2023-11-01T01:19:15.887Z,52229.72
2023-11-01T01:24:20.308Z,52265.72
2023-11-01T01:29:24.870Z,52245.72
2023-11-01T01:34:30.666Z,52225.72
2023-11-01T01:39:35.071Z,52229.72
2023-11-01T01:44:39.515Z,52227.72
2023-11-01T01:49:46.166Z,52239.72
2023-11-01T01:54:52.266Z,52239.72
2023-11-01T01:59:58.278Z,52195.72
2023-11-01T02:05:07.876Z,52217.72
2023-11-01T02:10:15.827Z,52269.72
2023-11-01T02:15:20.329Z,52229.72
2023-11-01T02:20:26.410Z,52197.72
2023-11-01T02:25:32.285Z,52211.72
2023-11-01T02:30:36.763Z,52233.72
2023-11-01T02:35:41.225Z,52183.69
2023-11-01T02:40:47.111Z,52167.69
2023-11-01T02:45:51.551Z,52181.69
2023-11-01T02:50:56.626Z,52179.69
2023-11-01T02:56:02.445Z,52207.72
2023-11-01T03:01:07.180Z,52153.69
2023-11-01T03:06:11.534Z,52171.69
2023-11-01T03:11:17.507Z,52199.72
2023-11-01T03:16:21.904Z,52197.72
2023-11-01T03:21:26.145Z,52151.69
2023-11-01T03:26:32.445Z,52215.72
2023-11-01T03:31:36.715Z,52229.72
2023-11-01T03:36:41.006Z,52217.72
2023-11-01T03:41:47.828Z,52205.69
2023-11-01T03:46:52.055Z,52205.69
2023-11-01T03:51:56.254Z,52193.72
2023-11-01T03:57:02.302Z,52181.69
2023-11-01T04:02:06.665Z,52171.69
2023-11-01T04:07:10.833Z,52191.72
2023-11-01T04:12:16.663Z,52187.72
2023-11-01T04:17:22.284Z,52177.69
2023-11-01T04:22:26.484Z,52121.69
2023-11-01T04:27:32.063Z,52199.72
2023-11-01T04:32:36.315Z,52209.72
2023-11-01T04:37:40.916Z,52205.69
2023-11-01T04:42:46.995Z,52185.69
2023-11-01T04:47:51.416Z,52161.69
2023-11-01T04:52:56.059Z,52211.72
2023-11-01T04:58:01.915Z,52161.69
2023-11-01T05:03:06.453Z,52141.69
2023-11-01T05:08:11.715Z,52179.69
2023-11-01T05:13:17.432Z,52201.69
2023-11-01T05:18:21.753Z,52145.69
2023-11-01T05:23:25.925Z,52147.69
2023-11-01T05:28:31.532Z,52217.72
2023-11-01T05:33:35.736Z,52149.69
2023-11-01T05:38:39.938Z,52165.69
2023-11-01T05:43:45.700Z,52147.69
2023-11-01T05:48:49.894Z,52159.69
2023-11-01T05:53:54.151Z,52155.69
2023-11-01T05:59:00.037Z,52109.69
2023-11-01T06:04:04.513Z,52159.69
2023-11-01T06:09:08.873Z,52169.72
2023-11-01T06:14:14.531Z,52137.69
2023-11-01T06:19:18.895Z,52157.69
2023-11-01T06:24:23.055Z,52161.69
2023-11-01T06:29:29.156Z,52191.72
2023-11-01T06:34:33.481Z,52213.72
2023-11-01T06:39:37.754Z,52245.72
2023-11-01T06:44:43.450Z,52187.72
2023-11-01T06:49:48.771Z,52197.72
2023-11-01T06:54:52.991Z,52205.69
2023-11-01T06:59:58.622Z,52233.72
2023-11-01T07:05:02.873Z,52213.72
2023-11-01T07:10:09.310Z,52359.72
2023-11-01T07:15:15.226Z,52415.72
2023-11-01T07:20:19.593Z,52329.72
2023-11-01T07:25:23.944Z,52511.72
2023-11-01T07:30:29.635Z,52445.72
2023-11-01T07:35:33.942Z,52323.72
2023-11-01T07:40:43.230Z,52223.72
2023-11-01T07:45:49.493Z,52169.72
2023-11-01T07:50:53.791Z,52333.72
2023-11-01T07:55:58.114Z,52555.72
2023-11-01T08:01:03.928Z,52505.72
2023-11-01T08:06:08.581Z,52661.75
2023-11-01T08:11:12.937Z,52707.75
2023-11-01T08:16:18.822Z,52657.75
2023-11-01T08:21:23.226Z,52655.75
2023-11-01T08:26:27.554Z,52537.72
2023-11-01T08:31:33.254Z,52469.72
2023-11-01T08:36:37.541Z,52441.72
2023-11-01T08:41:41.872Z,52357.72
2023-11-01T08:46:47.879Z,52335.72
2023-11-01T08:51:52.192Z,52271.72
2023-11-01T08:56:56.544Z,52205.69
2023-11-01T09:02:07.868Z,52255.72
2023-11-01T09:07:17.872Z,52215.72
2023-11-01T09:12:22.410Z,52259.72
2023-11-01T09:17:28.229Z,52241.72
2023-11-01T09:22:32.371Z,52233.72
2023-11-01T09:27:36.606Z,52245.72
2023-11-01T09:32:42.313Z,52249.72
2023-11-01T09:37:46.620Z,52275.72
2023-11-01T09:42:50.881Z,52483.72
2023-11-01T09:47:56.511Z,52459.72
2023-11-01T09:53:00.783Z,52329.72
2023-11-01T09:58:08.782Z,52321.72
2023-11-01T10:03:15.354Z,52413.72
2023-11-01T10:08:21.290Z,52685.75
2023-11-01T10:13:26.873Z,52709.75
2023-11-01T10:18:33.936Z,52515.72
2023-11-01T10:23:38.473Z,52429.72
2023-11-01T10:28:43.239Z,52429.72
2023-11-01T10:33:49.873Z,52473.72
2023-11-01T10:38:55.859Z,52385.72
2023-11-01T10:44:00.208Z,52389.72
2023-11-01T10:49:07.698Z,52349.72
2023-11-01T10:54:12.490Z,52371.72
2023-11-01T10:59:26.108Z,52345.72
2023-11-01T11:04:38.631Z,52347.72
2023-11-01T11:09:42.922Z,52405.72
2023-11-01T11:14:48.137Z,52395.72
2023-11-01T11:20:18.120Z,52349.72
2023-11-01T11:25:51.296Z,52401.72
2023-11-01T11:31:06.965Z,52443.72
2023-11-01T11:36:20.339Z,52505.72
2023-11-01T11:41:25.634Z,52517.72
2023-11-01T11:46:30.056Z,52603.75
2023-11-01T11:51:36.925Z,52761.75
2023-11-01T11:56:41.339Z,52653.75
2023-11-01T12:01:45.629Z,52671.75
2023-11-01T12:06:52.881Z,52655.75
2023-11-01T12:11:59.057Z,52525.72
2023-11-01T12:17:04.401Z,52641.75
2023-11-01T12:22:11.073Z,52747.75
2023-11-01T12:27:16.413Z,52641.75
2023-11-01T12:32:22.089Z,52747.75
2023-11-01T12:37:28.790Z,52607.75
2023-11-01T12:42:34.075Z,52465.72
2023-11-01T12:47:43.077Z,52423.72
2023-11-01T12:52:49.681Z,52457.72
2023-11-01T12:57:56.180Z,52519.72
2023-11-01T13:03:02.745Z,52671.75
2023-11-01T13:08:09.476Z,52717.75
2023-11-01T13:13:13.787Z,52625.75
2023-11-01T13:18:18.044Z,52537.72
2023-11-01T13:23:23.791Z,52491.72
2023-11-01T13:28:28.018Z,52475.72
2023-11-01T13:33:32.363Z,52409.72
2023-11-01T13:38:38.131Z,52433.72
2023-11-01T13:43:42.348Z,52417.72
2023-11-01T13:48:46.711Z,52281.72
2023-11-01T13:53:52.424Z,52319.72
2023-11-01T13:58:56.870Z,52275.72
2023-11-01T14:04:01.450Z,52229.72
2023-11-01T14:09:07.405Z,52243.72
2023-11-01T14:14:11.639Z,52209.72
2023-11-01T14:19:15.856Z,52231.72
2023-11-01T14:24:21.599Z,52269.72
2023-11-01T14:29:27.168Z,52249.72
2023-11-01T14:34:31.621Z,52265.72
2023-11-01T14:39:37.248Z,52257.72
2023-11-01T14:44:41.519Z,52187.72
2023-11-01T14:49:45.931Z,52119.69
2023-11-01T14:54:51.547Z,52109.69
2023-11-01T14:59:55.804Z,52103.69
2023-11-01T15:05:00.284Z,52103.69
2023-11-01T15:10:06.642Z,52071.69
2023-11-01T15:15:11.803Z,52085.69
2023-11-01T15:20:16.276Z,52041.69
2023-11-01T15:25:21.925Z,52057.69
2023-11-01T15:30:26.235Z,52033.69
2023-11-01T15:35:30.396Z,51961.69
2023-11-01T15:40:36.047Z,51961.69
2023-11-01T15:45:40.288Z,51973.69
2023-11-01T15:50:44.829Z,51927.72
2023-11-01T15:55:50.546Z,51923.72
2023-11-01T16:00:54.818Z,51875.72
2023-11-01T16:05:59.071Z,51849.72
2023-11-01T16:11:05.533Z,51841.72
2023-11-01T16:16:10.536Z,51867.72
2023-11-01T16:21:15.388Z,51823.72
2023-11-01T16:26:22.829Z,51817.72
2023-11-01T16:31:27.189Z,51833.72
2023-11-01T16:36:31.425Z,51793.72
2023-11-01T16:41:37.163Z,51819.72
2023-11-01T16:46:42.717Z,51811.72
2023-11-01T16:51:49.202Z,51771.72
2023-11-01T16:56:56.349Z,51763.72
2023-11-01T17:02:00.949Z,51765.72
2023-11-01T17:07:05.804Z,51767.72
2023-11-01T17:12:11.661Z,51793.72
2023-11-01T17:17:15.953Z,51805.72
2023-11-01T17:22:51.446Z,51781.72
2023-11-01T17:27:57.158Z,51743.72
2023-11-01T17:33:01.514Z,51747.72
2023-11-01T17:38:21.858Z,51755.72
2023-11-01T17:43:47.687Z,51745.72
2023-11-01T17:48:53.788Z,51753.72
2023-11-01T17:53:58.263Z,51741.72
2023-11-01T17:59:03.940Z,51753.72
2023-11-01T18:04:08.348Z,51725.72
2023-11-01T18:09:19.795Z,51733.72
2023-11-01T18:14:25.418Z,51717.72
2023-11-01T18:19:29.679Z,51745.72
2023-11-01T18:24:42.550Z,51729.72
2023-11-01T18:29:50.169Z,51719.72
2023-11-01T18:34:59.379Z,51711.72
2023-11-01T18:40:03.770Z,51687.72
2023-11-01T18:45:14.017Z,51687.72
2023-11-01T18:50:18.169Z,51709.72
2023-11-01T18:55:32.055Z,51653.72
2023-11-01T19:00:37.801Z,51649.72
2023-11-01T19:05:43.054Z,51717.72
2023-11-01T19:10:48.955Z,51649.72
2023-11-01T19:16:21.748Z,51701.72
2023-11-01T19:21:26.524Z,51669.72
2023-11-01T19:26:30.808Z,51665.72
2023-11-01T19:31:36.458Z,51661.72
2023-11-01T19:36:42.130Z,51659.72
2023-11-01T19:41:47.134Z,51639.72
2023-11-01T19:46:52.784Z,51689.72
2023-11-01T19:51:57.041Z,51653.72
2023-11-01T19:57:01.420Z,51665.72
2023-11-01T20:02:08.741Z,51685.72
2023-11-01T20:07:13.026Z,51647.72
2023-11-01T20:12:17.330Z,51639.72
2023-11-01T20:17:23.150Z,51615.72
2023-11-01T20:22:27.388Z,51621.72
2023-11-01T20:27:31.657Z,51611.72
2023-11-01T20:32:38.011Z,51617.72
2023-11-01T20:37:42.656Z,51623.72
2023-11-01T20:42:46.858Z,51653.72
2023-11-01T20:47:52.599Z,51643.72
2023-11-01T20:52:56.825Z,51605.72
2023-11-01T20:58:01.016Z,51647.72
2023-11-01T21:03:07.334Z,51629.72
2023-11-01T21:08:11.910Z,51577.72
2023-11-01T21:13:16.227Z,51629.72
2023-11-01T21:18:21.997Z,51609.72
2023-11-01T21:23:26.223Z,51619.72
2023-11-01T21:28:30.700Z,51605.72
2023-11-01T21:33:36.410Z,51599.72
2023-11-01T21:38:40.612Z,51621.72
2023-11-01T21:43:54.036Z,51619.72
2023-11-01T21:49:08.183Z,51589.72
2023-11-01T21:54:25.824Z,51565.72
2023-11-01T21:59:30.910Z,51613.72
2023-11-01T22:04:39.750Z,51583.72
2023-11-01T22:09:43.974Z,51591.72
2023-11-01T22:14:48.143Z,51589.72
2023-11-01T22:19:55.219Z,51581.72
2023-11-01T22:24:59.773Z,51607.72
2023-11-01T22:30:04.951Z,51571.72
2023-11-01T22:35:11.248Z,51577.72
2023-11-01T22:40:17.256Z,51569.72
2023-11-01T22:45:21.450Z,51565.72
2023-11-01T22:50:27.093Z,51555.72
2023-11-01T22:55:40.964Z,51605.72
2023-11-01T23:00:47.273Z,51553.72
2023-11-01T23:05:52.977Z,51549.72
2023-11-01T23:10:57.217Z,51543.75
2023-11-01T23:16:01.379Z,51529.75
2023-11-01T23:21:10.749Z,51501.75
2023-11-01T23:26:18.153Z,51533.75
2023-11-01T23:31:22.398Z,51535.75
2023-11-01T23:36:31.946Z,51537.75
2023-11-01T23:41:47.646Z,51545.75
2023-11-01T23:46:51.903Z,51525.75
2023-11-01T23:52:00.792Z,51533.75
2023-11-01T23:57:06.178Z,51529.75
